createdAt,value
2023-02-13T00:00:29.887Z,0.00
2023-02-13T00:01:29.973Z,0.00
2023-02-13T00:02:30.163Z,0.00
2023-02-13T00:03:30.248Z,0.00
2023-02-13T00:04:30.222Z,0.00
2023-02-13T00:05:30.304Z,0.00
2023-02-13T00:06:30.395Z,0.00
2023-02-13T00:07:30.449Z,0.00
2023-02-13T00:08:30.552Z,0.00
2023-02-13T00:09:30.641Z,0.00
2023-02-13T00:10:30.717Z,0.00
2023-02-13T00:11:30.801Z,0.00
2023-02-13T00:12:30.995Z,0.00
2023-02-13T00:13:30.970Z,0.00
2023-02-13T00:14:31.010Z,0.00
2023-02-13T00:15:31.108Z,0.00
2023-02-13T00:16:31.188Z,0.00
2023-02-13T00:17:31.270Z,0.00
2023-02-13T00:18:31.367Z,0.00
2023-02-13T00:19:31.408Z,0.00
2023-02-13T00:20:31.515Z,0.00
2023-02-13T00:21:31.597Z,0.00
2023-02-13T00:22:31.681Z,0.00
2023-02-13T00:23:31.753Z,0.00
2023-02-13T00:24:31.837Z,0.00
2023-02-13T00:25:31.898Z,0.00
2023-02-13T00:26:31.980Z,0.00
2023-02-13T00:27:32.057Z,0.00
2023-02-13T00:28:32.187Z,0.00
2023-02-13T00:29:32.193Z,0.00
2023-02-13T00:30:32.272Z,0.00
2023-02-13T00:31:32.478Z,0.00
2023-02-13T00:32:32.456Z,0.00
2023-02-13T00:33:32.556Z,0.00
2023-02-13T00:34:32.638Z,0.00
2023-02-13T00:35:32.721Z,0.00
2023-02-13T00:36:32.823Z,0.00
2023-02-13T00:37:32.912Z,0.00
2023-02-13T00:38:33.014Z,0.00
2023-02-13T00:39:33.072Z,0.00
2023-02-13T00:40:33.148Z,0.00
2023-02-13T00:41:33.212Z,0.00
2023-02-13T00:42:33.301Z,0.00
2023-02-13T00:43:33.405Z,0.00
2023-02-13T00:44:33.500Z,0.00
2023-02-13T00:45:33.566Z,0.00
2023-02-13T00:46:33.667Z,0.00
2023-02-13T00:47:33.731Z,0.00
2023-02-13T00:48:33.833Z,0.00
2023-02-13T00:49:33.888Z,0.00
2023-02-13T00:50:33.998Z,0.00
2023-02-13T00:51:34.096Z,0.00
2023-02-13T00:52:34.183Z,0.00
2023-02-13T00:53:34.273Z,0.00
2023-02-13T00:54:34.344Z,0.00
2023-02-13T00:55:34.420Z,0.00
2023-02-13T00:56:34.508Z,0.00
2023-02-13T00:57:34.593Z,0.00
2023-02-13T00:58:34.798Z,0.00
2023-02-13T00:59:34.752Z,0.00
2023-02-13T01:00:34.846Z,0.00
2023-02-13T01:01:35.029Z,0.00
2023-02-13T01:02:35.001Z,0.00
2023-02-13T01:03:35.154Z,0.00
2023-02-13T01:04:35.178Z,0.00
2023-02-13T01:05:35.266Z,0.00
2023-02-13T01:06:35.354Z,0.00
2023-02-13T01:07:35.408Z,0.00
2023-02-13T01:08:35.573Z,0.00
2023-02-13T01:09:35.579Z,0.00
2023-02-13T01:10:35.655Z,0.00
2023-02-13T01:11:35.734Z,0.00
2023-02-13T01:12:35.832Z,0.00
2023-02-13T01:13:35.925Z,0.00
2023-02-13T01:14:35.997Z,0.00
2023-02-13T01:15:36.066Z,0.00
2023-02-13T01:16:36.155Z,0.00
2023-02-13T01:17:36.243Z,0.00
2023-02-13T01:18:36.397Z,0.00
2023-02-13T01:19:36.404Z,0.00
2023-02-13T01:20:36.501Z,0.00
2023-02-13T01:21:36.594Z,0.00
2023-02-13T01:22:36.689Z,0.00
2023-02-13T01:23:36.792Z,0.00
2023-02-13T01:24:36.923Z,0.00
2023-02-13T01:25:36.962Z,0.00
2023-02-13T01:26:37.054Z,0.00
2023-02-13T01:27:37.117Z,0.00
2023-02-13T01:28:37.340Z,0.00
2023-02-13T01:29:37.285Z,0.00
2023-02-13T01:30:37.382Z,0.00
2023-02-13T01:31:37.519Z,0.00
2023-02-13T01:32:37.557Z,0.00
2023-02-13T01:33:37.642Z,0.00
2023-02-13T01:34:37.725Z,0.00
2023-02-13T01:35:37.809Z,0.00
2023-02-13T01:36:37.910Z,0.00
2023-02-13T01:37:37.993Z,0.00
2023-02-13T01:38:38.102Z,0.00
2023-02-13T01:39:38.187Z,0.00
2023-02-13T01:40:38.254Z,0.00
2023-02-13T01:41:38.363Z,0.00
2023-02-13T01:42:38.421Z,0.00
2023-02-13T01:43:38.537Z,0.00
2023-02-13T01:44:38.608Z,0.00
2023-02-13T01:45:38.664Z,0.00
2023-02-13T01:46:38.879Z,0.00
2023-02-13T01:47:38.851Z,0.00
2023-02-13T01:48:38.937Z,0.00
2023-02-13T01:49:38.983Z,0.00
2023-02-13T01:50:39.057Z,0.00
2023-02-13T01:51:39.162Z,0.00
2023-02-13T01:52:39.251Z,0.00
2023-02-13T01:53:39.366Z,0.00
2023-02-13T01:54:39.399Z,0.00
2023-02-13T01:55:39.494Z,0.00
2023-02-13T01:56:39.574Z,0.00
2023-02-13T01:57:39.668Z,0.00
2023-02-13T01:58:39.748Z,0.00
2023-02-13T01:59:39.798Z,0.00
2023-02-13T02:00:39.875Z,0.00
2023-02-13T02:01:40.056Z,0.00
2023-02-13T02:02:40.071Z,0.00
2023-02-13T02:03:40.147Z,0.00
2023-02-13T02:04:40.194Z,0.00
2023-02-13T02:05:40.284Z,0.00
2023-02-13T02:06:40.365Z,0.00
2023-02-13T02:07:40.460Z,0.00
2023-02-13T02:08:40.590Z,0.00
2023-02-13T02:09:40.634Z,0.00
2023-02-13T02:10:40.707Z,0.00
2023-02-13T02:11:40.794Z,0.00
2023-02-13T02:12:40.893Z,0.00
2023-02-13T02:13:40.990Z,0.00
2023-02-13T02:14:41.070Z,0.00
2023-02-13T02:15:41.178Z,0.00
2023-02-13T02:16:41.231Z,0.00
2023-02-13T02:17:41.293Z,0.00
2023-02-13T02:18:41.374Z,0.00
2023-02-13T02:19:41.446Z,0.00
2023-02-13T02:20:41.519Z,0.00
2023-02-13T02:21:41.597Z,0.00
2023-02-13T02:22:41.678Z,0.00
2023-02-13T02:23:41.788Z,0.00
2023-02-13T02:24:41.862Z,0.00
2023-02-13T02:25:41.912Z,0.00
2023-02-13T02:26:42.014Z,0.00
2023-02-13T02:27:42.063Z,0.00
2023-02-13T02:28:42.192Z,0.00
2023-02-13T02:29:42.231Z,0.00
2023-02-13T02:30:42.387Z,0.00
2023-02-13T02:31:42.475Z,0.00
2023-02-13T02:32:42.473Z,0.00
2023-02-13T02:33:42.568Z,0.00
2023-02-13T02:34:42.649Z,0.00
2023-02-13T02:35:42.703Z,0.00
2023-02-13T02:36:42.790Z,0.00
2023-02-13T02:37:42.876Z,0.00
2023-02-13T02:38:42.978Z,0.00
2023-02-13T02:39:43.033Z,0.00
2023-02-13T02:40:43.106Z,0.00
2023-02-13T02:41:43.227Z,0.00
2023-02-13T02:42:43.274Z,0.00
2023-02-13T02:43:43.375Z,0.00
2023-02-13T02:44:43.455Z,0.00
2023-02-13T02:45:43.531Z,0.00
2023-02-13T02:46:43.652Z,0.00
2023-02-13T02:47:43.680Z,0.00
2023-02-13T02:48:43.779Z,0.00
2023-02-13T02:49:43.828Z,0.00
2023-02-13T02:50:43.901Z,0.00
2023-02-13T02:51:43.966Z,0.00
2023-02-13T02:52:44.040Z,0.00
2023-02-13T02:53:44.145Z,0.00
2023-02-13T02:54:44.189Z,0.00
2023-02-13T02:55:44.275Z,0.00
2023-02-13T02:56:44.367Z,0.00
2023-02-13T02:57:44.443Z,0.00
2023-02-13T02:58:44.556Z,0.00
2023-02-13T02:59:44.588Z,0.00
2023-02-13T03:00:44.795Z,0.00
2023-02-13T03:01:44.734Z,0.00
2023-02-13T03:02:44.864Z,0.00
2023-02-13T03:03:45.086Z,0.00
2023-02-13T03:04:45.007Z,0.00
2023-02-13T03:05:45.082Z,0.00
2023-02-13T03:06:45.176Z,0.00
2023-02-13T03:07:45.254Z,0.00
2023-02-13T03:08:45.350Z,0.00
2023-02-13T03:09:45.406Z,0.00
2023-02-13T03:10:45.497Z,0.00
2023-02-13T03:11:45.584Z,0.00
2023-02-13T03:12:45.674Z,0.00
2023-02-13T03:13:45.754Z,0.00
2023-02-13T03:14:45.834Z,0.00
2023-02-13T03:15:45.925Z,0.00
2023-02-13T03:16:46.063Z,0.00
2023-02-13T03:17:46.082Z,0.00
2023-02-13T03:18:46.224Z,0.00
2023-02-13T03:19:46.268Z,0.00
2023-02-13T03:20:46.361Z,0.00
2023-02-13T03:21:46.441Z,0.00
2023-02-13T03:22:46.528Z,0.00
2023-02-13T03:23:46.602Z,0.00
2023-02-13T03:24:46.691Z,0.00
2023-02-13T03:25:46.744Z,0.00
2023-02-13T03:26:46.827Z,0.00
2023-02-13T03:27:46.888Z,0.00
2023-02-13T03:28:46.999Z,0.00
2023-02-13T03:29:47.067Z,0.00
2023-02-13T03:30:47.181Z,0.00
2023-02-13T03:31:47.289Z,0.00
2023-02-13T03:32:47.326Z,0.00
2023-02-13T03:33:47.398Z,0.00
2023-02-13T03:34:47.464Z,0.00
2023-02-13T03:35:47.524Z,0.00
2023-02-13T03:36:47.606Z,0.00
2023-02-13T03:37:47.664Z,0.00
2023-02-13T03:38:47.773Z,0.00
2023-02-13T03:39:47.848Z,0.00
2023-02-13T03:40:47.928Z,0.00
2023-02-13T03:41:48.001Z,0.00
2023-02-13T03:42:48.102Z,0.00
2023-02-13T03:43:48.199Z,0.00
2023-02-13T03:44:48.267Z,0.00
2023-02-13T03:45:48.362Z,0.00
2023-02-13T03:46:48.474Z,0.00
2023-02-13T03:47:48.507Z,0.00
2023-02-13T03:48:48.635Z,0.00
2023-02-13T03:49:48.669Z,0.00
2023-02-13T03:50:48.764Z,0.00
2023-02-13T03:51:48.837Z,0.00
2023-02-13T03:52:48.921Z,0.00
2023-02-13T03:53:49.018Z,0.00
2023-02-13T03:54:49.083Z,0.00
2023-02-13T03:55:49.164Z,0.00
2023-02-13T03:56:49.252Z,0.00
2023-02-13T03:57:49.334Z,0.00
2023-02-13T03:58:49.462Z,0.00
2023-02-13T03:59:49.527Z,0.00
2023-02-13T04:00:49.643Z,0.00
2023-02-13T04:01:49.692Z,0.00
2023-02-13T04:02:49.793Z,0.00
2023-02-13T04:03:49.896Z,0.00
2023-02-13T04:04:49.958Z,0.00
2023-02-13T04:05:50.039Z,0.00
2023-02-13T04:06:50.114Z,0.00
2023-02-13T04:07:50.188Z,0.00
2023-02-13T04:08:50.310Z,0.00
2023-02-13T04:09:50.382Z,0.00
2023-02-13T04:10:50.482Z,0.00
2023-02-13T04:11:50.549Z,0.00
2023-02-13T04:12:50.617Z,0.00
2023-02-13T04:13:50.715Z,0.00
2023-02-13T04:14:50.781Z,0.00
2023-02-13T04:15:50.874Z,0.00
2023-02-13T04:16:51.006Z,0.00
2023-02-13T04:17:51.025Z,0.00
2023-02-13T04:18:51.145Z,0.00
2023-02-13T04:19:51.195Z,0.00
2023-02-13T04:20:51.307Z,0.00
2023-02-13T04:21:51.391Z,0.00
2023-02-13T04:22:51.491Z,0.00
2023-02-13T04:23:51.571Z,0.00
2023-02-13T04:24:51.636Z,0.00
2023-02-13T04:25:51.700Z,0.00
2023-02-13T04:26:51.861Z,0.00
2023-02-13T04:27:51.908Z,0.00
2023-02-13T04:28:52.004Z,0.00
2023-02-13T04:29:52.057Z,0.00
2023-02-13T04:30:52.252Z,0.00
2023-02-13T04:31:52.374Z,0.00
2023-02-13T04:32:52.268Z,0.00
2023-02-13T04:33:52.364Z,0.00
2023-02-13T04:34:52.440Z,0.00
2023-02-13T04:35:52.506Z,0.00
2023-02-13T04:36:52.687Z,0.00
2023-02-13T04:37:52.676Z,0.00
2023-02-13T04:38:52.766Z,0.00
2023-02-13T04:39:52.825Z,0.00
2023-02-13T04:40:52.893Z,0.00
2023-02-13T04:41:52.967Z,0.00
2023-02-13T04:42:53.067Z,0.00
2023-02-13T04:43:53.176Z,0.00
2023-02-13T04:44:53.251Z,0.00
2023-02-13T04:45:53.363Z,0.00
2023-02-13T04:46:53.409Z,0.00
2023-02-13T04:47:53.476Z,0.00
2023-02-13T04:48:53.571Z,0.00
2023-02-13T04:49:53.634Z,0.00
2023-02-13T04:50:53.704Z,0.00
2023-02-13T04:51:53.764Z,0.00
2023-02-13T04:52:53.856Z,0.00
2023-02-13T04:53:53.942Z,0.00
2023-02-13T04:54:54.009Z,0.00
2023-02-13T04:55:54.093Z,0.00
2023-02-13T04:56:54.175Z,0.00
2023-02-13T04:57:54.278Z,0.00
2023-02-13T04:58:54.375Z,0.00
2023-02-13T04:59:54.438Z,0.00
2023-02-13T05:00:54.938Z,0.00
2023-02-13T05:01:54.602Z,0.00
2023-02-13T05:02:54.696Z,0.00
2023-02-13T05:03:54.786Z,0.00
2023-02-13T05:04:54.850Z,0.00
2023-02-13T05:05:54.909Z,0.00
2023-02-13T05:06:54.981Z,0.00
2023-02-13T05:07:55.039Z,0.00
2023-02-13T05:08:55.174Z,0.00
2023-02-13T05:09:55.191Z,0.00
2023-02-13T05:10:55.361Z,0.00
2023-02-13T05:11:55.345Z,0.00
2023-02-13T05:12:55.410Z,0.00
2023-02-13T05:13:55.522Z,0.00
2023-02-13T05:14:55.609Z,0.00
2023-02-13T05:15:55.716Z,0.00
2023-02-13T05:16:55.795Z,0.00
2023-02-13T05:17:55.853Z,0.00
2023-02-13T05:18:55.950Z,0.00
2023-02-13T05:19:56.013Z,0.00
2023-02-13T05:20:56.418Z,0.00
2023-02-13T05:21:56.206Z,0.00
2023-02-13T05:22:56.311Z,0.00
2023-02-13T05:23:58.231Z,0.00
2023-02-13T05:24:56.473Z,0.00
2023-02-13T05:25:56.540Z,0.00
2023-02-13T05:26:56.638Z,0.00
2023-02-13T05:27:56.707Z,0.00
2023-02-13T05:28:56.788Z,0.00
2023-02-13T05:29:56.864Z,0.00
2023-02-13T05:30:57.572Z,0.00
2023-02-13T05:31:57.164Z,0.00
2023-02-13T05:32:57.097Z,0.00
2023-02-13T05:33:57.155Z,0.00
2023-02-13T05:34:57.270Z,0.00
2023-02-13T05:35:57.318Z,0.00
2023-02-13T05:36:57.434Z,0.00
2023-02-13T05:37:57.501Z,0.00
2023-02-13T05:38:57.575Z,0.00
2023-02-13T05:39:57.669Z,0.00
2023-02-13T05:40:58.149Z,0.00
2023-02-13T05:41:57.816Z,0.00
2023-02-13T05:42:57.905Z,0.00
2023-02-13T05:43:57.990Z,0.00
2023-02-13T05:44:58.104Z,0.00
2023-02-13T05:45:58.170Z,0.00
2023-02-13T05:46:58.257Z,0.00
2023-02-13T05:47:58.354Z,0.00
2023-02-13T05:48:58.394Z,0.00
2023-02-13T05:49:58.464Z,0.00
2023-02-13T05:50:59.031Z,0.00
2023-02-13T05:51:58.617Z,0.00
2023-02-13T05:52:58.722Z,0.00
2023-02-13T05:53:58.810Z,0.00
2023-02-13T05:54:58.931Z,0.00
2023-02-13T05:55:58.988Z,0.00
2023-02-13T05:56:59.091Z,0.00
2023-02-13T05:57:59.184Z,0.00
2023-02-13T05:58:59.264Z,0.00
2023-02-13T05:59:59.350Z,0.00
2023-02-13T06:00:59.836Z,0.00
2023-02-13T06:01:59.514Z,0.00
2023-02-13T06:02:59.609Z,0.00
2023-02-13T06:04:02.042Z,0.00
2023-02-13T06:04:59.786Z,0.00
2023-02-13T06:05:59.837Z,0.00
2023-02-13T06:06:59.945Z,0.00
2023-02-13T06:07:59.998Z,0.00
2023-02-13T06:09:00.099Z,0.00
2023-02-13T06:10:00.153Z,0.00
2023-02-13T06:11:00.658Z,0.00
2023-02-13T06:12:00.317Z,0.00
2023-02-13T06:13:00.416Z,0.00
2023-02-13T06:14:00.494Z,0.00
2023-02-13T06:15:00.629Z,0.00
2023-02-13T06:16:00.727Z,0.00
2023-02-13T06:17:00.753Z,0.00
2023-02-13T06:18:00.846Z,0.00
2023-02-13T06:19:00.944Z,0.00
2023-02-13T06:20:01.032Z,0.00
2023-02-13T06:21:01.121Z,0.00
2023-02-13T06:22:01.192Z,0.00
2023-02-13T06:23:01.289Z,0.00
2023-02-13T06:24:01.349Z,0.00
2023-02-13T06:25:01.485Z,0.00
2023-02-13T06:26:01.536Z,0.00
2023-02-13T06:27:01.619Z,0.00
2023-02-13T06:28:01.788Z,0.00
2023-02-13T06:29:01.775Z,0.00
2023-02-13T06:30:01.878Z,0.00
2023-02-13T06:31:02.404Z,0.00
2023-02-13T06:32:02.081Z,0.00
2023-02-13T06:33:02.140Z,0.00
2023-02-13T06:34:02.226Z,5.62
2023-02-13T06:35:05.183Z,5.62
2023-02-13T06:36:02.399Z,5.62
2023-02-13T06:37:02.484Z,5.62
2023-02-13T06:38:02.577Z,5.62
2023-02-13T06:39:02.656Z,5.62
2023-02-13T06:40:02.758Z,11.25
2023-02-13T06:41:02.821Z,11.25
2023-02-13T06:42:02.932Z,11.25
2023-02-13T06:43:02.984Z,11.25
2023-02-13T06:44:03.077Z,16.88
2023-02-13T06:45:03.218Z,16.88
2023-02-13T06:46:03.235Z,16.88
2023-02-13T06:47:03.419Z,16.88
2023-02-13T06:48:03.388Z,22.50
2023-02-13T06:49:03.490Z,22.50
2023-02-13T06:50:03.592Z,22.50
2023-02-13T06:51:03.665Z,28.12
2023-02-13T06:52:03.774Z,28.12
2023-02-13T06:53:03.840Z,33.75
2023-02-13T06:54:03.949Z,33.75
2023-02-13T06:55:04.026Z,33.75
2023-02-13T06:56:04.110Z,39.38
2023-02-13T06:57:04.221Z,39.38
2023-02-13T06:58:04.283Z,45.00
2023-02-13T06:59:04.325Z,45.00
2023-02-13T07:00:04.453Z,50.62
2023-02-13T07:01:04.522Z,50.62
2023-02-13T07:02:04.583Z,56.25
2023-02-13T07:03:04.715Z,61.88
2023-02-13T07:04:04.750Z,61.88
2023-02-13T07:05:04.863Z,67.50
2023-02-13T07:06:04.915Z,67.50
2023-02-13T07:07:04.997Z,73.12
2023-02-13T07:08:05.115Z,73.12
2023-02-13T07:09:05.186Z,78.75
2023-02-13T07:10:05.296Z,78.75
2023-02-13T07:11:05.359Z,84.38
2023-02-13T07:12:05.436Z,90.00
2023-02-13T07:13:06.403Z,90.00
2023-02-13T07:14:05.576Z,95.62
2023-02-13T07:15:05.663Z,95.62
2023-02-13T07:16:05.789Z,101.25
2023-02-13T07:17:05.792Z,101.25
2023-02-13T07:18:05.906Z,106.88
2023-02-13T07:19:05.956Z,106.88
2023-02-13T07:20:06.080Z,112.50
2023-02-13T07:21:06.113Z,118.12
2023-02-13T07:22:06.215Z,118.12
2023-02-13T07:23:06.269Z,123.75
2023-02-13T07:24:08.056Z,151.88
2023-02-13T07:25:06.426Z,168.75
2023-02-13T07:26:06.479Z,163.12
2023-02-13T07:27:06.538Z,151.88
2023-02-13T07:28:06.740Z,168.75
2023-02-13T07:29:11.502Z,219.38
2023-02-13T07:30:06.779Z,225.00
2023-02-13T07:31:07.093Z,174.38
2023-02-13T07:32:07.118Z,174.38
2023-02-13T07:33:06.987Z,174.38
2023-02-13T07:34:07.103Z,180.00
2023-02-13T07:35:07.180Z,180.00
2023-02-13T07:36:07.263Z,180.00
2023-02-13T07:37:07.347Z,180.00
2023-02-13T07:38:07.455Z,185.62
2023-02-13T07:39:07.542Z,191.25
2023-02-13T07:40:07.658Z,185.62
2023-02-13T07:41:07.717Z,185.62
2023-02-13T07:42:07.818Z,185.62
2023-02-13T07:43:07.875Z,191.25
2023-02-13T07:44:07.950Z,202.50
2023-02-13T07:45:08.039Z,208.12
2023-02-13T07:46:08.110Z,208.12
2023-02-13T07:47:08.199Z,225.00
2023-02-13T07:48:08.274Z,253.12
2023-02-13T07:49:08.329Z,241.88
2023-02-13T07:50:08.423Z,236.25
2023-02-13T07:51:08.482Z,264.38
2023-02-13T07:52:08.637Z,275.62
2023-02-13T07:53:08.617Z,292.50
2023-02-13T07:54:08.708Z,337.50
2023-02-13T07:55:08.802Z,399.38
2023-02-13T07:56:08.885Z,528.75
2023-02-13T07:57:08.966Z,663.75
2023-02-13T07:58:09.043Z,556.88
2023-02-13T07:59:09.132Z,444.38
2023-02-13T08:00:09.249Z,731.25
2023-02-13T08:01:09.321Z,883.12
2023-02-13T08:02:09.449Z,720.00
2023-02-13T08:03:09.462Z,933.75
2023-02-13T08:04:09.651Z,1220.62
2023-02-13T08:05:09.631Z,1215.00
2023-02-13T08:06:09.699Z,1175.62
2023-02-13T08:07:09.772Z,1490.62
2023-02-13T08:08:09.866Z,1777.50
2023-02-13T08:09:09.935Z,1816.88
2023-02-13T08:10:10.051Z,1794.38
2023-02-13T08:11:10.109Z,1850.62
2023-02-13T08:12:10.202Z,1935.00
2023-02-13T08:13:10.253Z,1946.25
2023-02-13T08:14:10.324Z,1951.88
2023-02-13T08:15:10.406Z,1968.75
2023-02-13T08:16:10.496Z,1901.25
2023-02-13T08:17:10.544Z,1850.62
2023-02-13T08:18:10.620Z,1906.88
2023-02-13T08:19:10.663Z,1980.00
2023-02-13T08:20:10.751Z,1968.75
2023-02-13T08:21:10.801Z,1901.25
2023-02-13T08:22:10.905Z,1783.12
2023-02-13T08:23:11.050Z,1625.62
2023-02-13T08:24:11.045Z,1327.50
2023-02-13T08:25:11.118Z,1327.50
2023-02-13T08:26:11.248Z,1687.50
2023-02-13T08:27:11.271Z,1726.88
2023-02-13T08:28:11.486Z,1586.25
2023-02-13T08:29:11.446Z,1468.12
2023-02-13T08:30:11.544Z,1586.25
2023-02-13T08:31:12.011Z,1760.62
2023-02-13T08:32:11.745Z,1968.75
2023-02-13T08:33:11.754Z,2025.00
2023-02-13T08:34:11.836Z,1957.50
2023-02-13T08:35:11.900Z,1991.25
2023-02-13T08:36:12.006Z,2115.00
2023-02-13T08:37:12.063Z,2098.12
2023-02-13T08:38:12.135Z,2025.00
2023-02-13T08:39:12.230Z,1985.62
2023-02-13T08:40:12.311Z,1918.12
2023-02-13T08:41:12.357Z,1822.50
2023-02-13T08:42:15.732Z,1805.62
2023-02-13T08:43:12.484Z,1845.00
2023-02-13T08:44:12.558Z,1726.88
2023-02-13T08:45:12.651Z,1603.12
2023-02-13T08:46:12.744Z,1546.88
2023-02-13T08:47:12.842Z,1878.75
2023-02-13T08:48:12.846Z,1974.38
2023-02-13T08:49:12.939Z,1991.25
2023-02-13T08:50:13.048Z,1963.12
2023-02-13T08:51:13.097Z,1929.38
2023-02-13T08:52:13.180Z,1951.88
2023-02-13T08:53:13.270Z,1878.75
2023-02-13T08:54:13.342Z,1873.12
2023-02-13T08:55:13.407Z,1946.25
2023-02-13T08:56:13.462Z,1996.88
2023-02-13T08:57:13.523Z,1929.38
2023-02-13T08:58:13.621Z,1901.25
2023-02-13T08:59:13.697Z,1890.00
2023-02-13T09:00:13.798Z,1901.25
2023-02-13T09:01:13.871Z,1929.38
2023-02-13T09:02:13.929Z,1974.38
2023-02-13T09:03:14.047Z,2041.88
2023-02-13T09:04:14.107Z,2047.50
2023-02-13T09:05:22.919Z,2008.12
2023-02-13T09:06:14.280Z,2002.50
2023-02-13T09:07:14.382Z,1996.88
2023-02-13T09:08:14.471Z,1968.75
2023-02-13T09:09:14.537Z,1957.50
2023-02-13T09:10:14.634Z,1974.38
2023-02-13T09:11:14.744Z,1963.12
2023-02-13T09:12:14.787Z,1985.62
2023-02-13T09:13:14.834Z,2002.50
2023-02-13T09:14:14.933Z,2025.00
2023-02-13T09:15:14.992Z,2013.75
2023-02-13T09:16:15.087Z,1991.25
2023-02-13T09:17:15.145Z,2030.62
2023-02-13T09:18:15.244Z,2036.25
2023-02-13T09:19:15.300Z,2041.88
2023-02-13T09:20:15.386Z,2182.50
2023-02-13T09:21:15.466Z,2221.88
2023-02-13T09:22:15.530Z,2115.00
2023-02-13T09:23:15.588Z,2165.62
2023-02-13T09:24:15.674Z,2171.25
2023-02-13T09:25:15.765Z,2109.38
2023-02-13T09:26:15.897Z,2098.12
2023-02-13T09:27:15.941Z,2064.38
2023-02-13T09:28:16.067Z,2036.25
2023-02-13T09:29:16.094Z,1968.75
2023-02-13T09:30:16.187Z,1957.50
2023-02-13T09:31:16.410Z,1991.25
2023-02-13T09:32:16.419Z,2025.00
2023-02-13T09:33:16.407Z,1996.88
2023-02-13T09:34:16.499Z,1980.00
2023-02-13T09:35:16.575Z,2013.75
2023-02-13T09:36:16.675Z,2013.75
2023-02-13T09:37:16.725Z,2036.25
2023-02-13T09:38:16.787Z,2013.75
2023-02-13T09:39:16.840Z,1996.88
2023-02-13T09:40:16.945Z,1968.75
2023-02-13T09:41:17.492Z,1906.88
2023-02-13T09:42:17.066Z,1890.00
2023-02-13T09:43:17.170Z,1822.50
2023-02-13T09:44:17.237Z,1771.88
2023-02-13T09:45:17.296Z,1755.00
2023-02-13T09:46:17.475Z,1704.38
2023-02-13T09:47:17.475Z,1653.75
2023-02-13T09:48:17.552Z,1625.62
2023-02-13T09:49:17.622Z,1620.00
2023-02-13T09:50:17.719Z,1625.62
2023-02-13T09:51:17.775Z,1648.12
2023-02-13T09:52:17.851Z,1614.38
2023-02-13T09:53:17.906Z,1541.25
2023-02-13T09:54:17.988Z,1485.00
2023-02-13T09:55:18.074Z,1473.75
2023-02-13T09:56:18.147Z,1468.12
2023-02-13T09:57:18.201Z,1451.25
2023-02-13T09:58:18.271Z,1451.25
2023-02-13T09:59:18.325Z,1417.50
2023-02-13T10:00:18.403Z,1383.75
2023-02-13T10:01:18.513Z,1378.12
2023-02-13T10:02:18.552Z,1355.62
2023-02-13T10:03:18.604Z,1310.62
2023-02-13T10:04:18.711Z,1276.88
2023-02-13T10:05:18.839Z,1237.50
2023-02-13T10:06:18.857Z,1215.00
2023-02-13T10:07:18.915Z,1186.88
2023-02-13T10:08:18.999Z,1141.88
2023-02-13T10:09:19.058Z,1119.38
2023-02-13T10:10:19.128Z,1113.75
2023-02-13T10:11:19.224Z,1102.50
2023-02-13T10:12:19.298Z,1091.25
2023-02-13T10:13:19.362Z,1074.38
2023-02-13T10:14:19.439Z,1035.00
2023-02-13T10:15:19.489Z,995.62
2023-02-13T10:16:19.619Z,978.75
2023-02-13T10:17:19.644Z,956.25
2023-02-13T10:18:19.722Z,933.75
2023-02-13T10:19:19.793Z,911.25
2023-02-13T10:20:20.067Z,928.12
2023-02-13T10:21:19.954Z,950.62
2023-02-13T10:22:20.042Z,956.25
2023-02-13T10:23:20.089Z,939.38
2023-02-13T10:24:20.168Z,905.62
2023-02-13T10:25:20.251Z,883.12
2023-02-13T10:26:20.399Z,877.50
2023-02-13T10:27:20.400Z,888.75
2023-02-13T10:28:20.523Z,888.75
2023-02-13T10:29:20.534Z,905.62
2023-02-13T10:30:20.610Z,939.38
2023-02-13T10:31:20.787Z,1006.88
2023-02-13T10:32:21.004Z,1158.75
2023-02-13T10:33:20.844Z,1406.25
2023-02-13T10:34:20.934Z,1788.75
2023-02-13T10:35:20.998Z,1957.50
2023-02-13T10:36:21.116Z,1755.00
2023-02-13T10:37:21.192Z,1456.88
2023-02-13T10:38:21.256Z,1350.00
2023-02-13T10:39:21.345Z,1378.12
2023-02-13T10:40:21.413Z,1395.00
2023-02-13T10:41:21.512Z,1299.38
2023-02-13T10:42:21.557Z,1164.38
2023-02-13T10:43:21.660Z,1068.75
2023-02-13T10:44:21.710Z,1080.00
2023-02-13T10:45:21.784Z,1125.00
2023-02-13T10:46:21.917Z,1063.12
2023-02-13T10:47:21.955Z,922.50
2023-02-13T10:48:22.032Z,905.62
2023-02-13T10:49:22.132Z,961.88
2023-02-13T10:50:22.184Z,1006.88
2023-02-13T10:51:22.287Z,843.75
2023-02-13T10:52:22.333Z,528.75
2023-02-13T10:53:22.426Z,376.88
2023-02-13T10:54:22.468Z,315.00
2023-02-13T10:55:22.554Z,298.12
2023-02-13T10:56:22.659Z,286.88
2023-02-13T10:57:22.706Z,286.88
2023-02-13T10:58:22.769Z,286.88
2023-02-13T10:59:22.854Z,286.88
2023-02-13T11:00:22.903Z,286.88
2023-02-13T11:01:23.056Z,286.88
2023-02-13T11:02:23.068Z,286.88
2023-02-13T11:03:23.153Z,286.88
2023-02-13T11:04:23.298Z,281.25
2023-02-13T11:05:23.316Z,281.25
2023-02-13T11:06:23.374Z,281.25
2023-02-13T11:07:23.453Z,281.25
2023-02-13T11:08:23.528Z,281.25
2023-02-13T11:09:23.607Z,281.25
2023-02-13T11:10:23.665Z,281.25
2023-02-13T11:11:23.758Z,275.62
2023-02-13T11:12:23.829Z,275.62
2023-02-13T11:13:23.904Z,275.62
2023-02-13T11:14:23.961Z,270.00
2023-02-13T11:15:24.038Z,270.00
2023-02-13T11:16:24.191Z,270.00
2023-02-13T11:17:24.182Z,270.00
2023-02-13T11:18:24.242Z,264.38
2023-02-13T11:19:24.326Z,264.38
2023-02-13T11:20:24.374Z,264.38
2023-02-13T11:21:24.484Z,264.38
2023-02-13T11:22:24.541Z,258.75
2023-02-13T11:23:24.622Z,258.75
2023-02-13T11:24:24.680Z,258.75
2023-02-13T11:25:24.762Z,258.75
2023-02-13T11:26:24.853Z,258.75
2023-02-13T11:27:24.898Z,258.75
2023-02-13T11:28:25.016Z,253.12
2023-02-13T11:29:25.059Z,253.12
2023-02-13T11:30:25.115Z,253.12
2023-02-13T11:31:25.453Z,253.12
2023-02-13T11:32:25.326Z,253.12
2023-02-13T11:33:25.378Z,253.12
2023-02-13T11:34:25.424Z,247.50
2023-02-13T11:35:25.502Z,247.50
2023-02-13T11:36:25.570Z,247.50
2023-02-13T11:37:25.647Z,247.50
2023-02-13T11:38:25.702Z,247.50
2023-02-13T11:39:25.783Z,247.50
2023-02-13T11:40:25.838Z,247.50
2023-02-13T11:41:25.944Z,247.50
2023-02-13T11:42:25.993Z,247.50
2023-02-13T11:43:26.076Z,241.88
2023-02-13T11:44:26.138Z,241.88
2023-02-13T11:45:26.235Z,241.88
2023-02-13T11:46:26.344Z,241.88
2023-02-13T11:47:26.362Z,241.88
2023-02-13T11:48:26.413Z,241.88
2023-02-13T11:49:26.504Z,241.88
2023-02-13T11:50:26.587Z,241.88
2023-02-13T11:51:26.649Z,241.88
2023-02-13T11:52:26.708Z,241.88
2023-02-13T11:53:26.793Z,241.88
2023-02-13T11:54:26.867Z,241.88
2023-02-13T11:55:26.957Z,236.25
2023-02-13T11:56:27.054Z,236.25
2023-02-13T11:57:27.123Z,236.25
2023-02-13T11:58:27.228Z,236.25
2023-02-13T11:59:27.262Z,236.25
2023-02-13T12:00:27.312Z,236.25
2023-02-13T12:01:27.411Z,236.25
2023-02-13T12:02:27.547Z,236.25
2023-02-13T12:03:27.773Z,236.25
2023-02-13T12:04:27.606Z,236.25
2023-02-13T12:05:27.691Z,236.25
2023-02-13T12:06:27.771Z,236.25
2023-02-13T12:07:27.838Z,236.25
2023-02-13T12:08:27.885Z,236.25
2023-02-13T12:09:27.981Z,230.62
2023-02-13T12:10:28.041Z,230.62
2023-02-13T12:11:28.151Z,230.62
2023-02-13T12:12:28.208Z,230.62
2023-02-13T12:13:28.304Z,230.62
2023-02-13T12:14:28.358Z,230.62
2023-02-13T12:15:28.488Z,230.62
2023-02-13T12:16:28.853Z,230.62
2023-02-13T12:17:32.182Z,230.62
2023-02-13T12:18:28.673Z,230.62
2023-02-13T12:19:28.757Z,230.62
2023-02-13T12:20:28.811Z,230.62
2023-02-13T12:21:29.201Z,230.62
2023-02-13T12:22:28.972Z,230.62
2023-02-13T12:23:29.054Z,230.62
2023-02-13T12:24:29.125Z,230.62
2023-02-13T12:25:29.225Z,230.62
2023-02-13T12:26:29.624Z,230.62
2023-02-13T12:27:29.377Z,230.62
2023-02-13T12:28:29.476Z,230.62
2023-02-13T12:29:29.553Z,230.62
2023-02-13T12:30:29.604Z,230.62
2023-02-13T12:31:29.844Z,230.62
2023-02-13T12:32:29.730Z,230.62
2023-02-13T12:33:29.813Z,230.62
2023-02-13T12:34:29.882Z,230.62
2023-02-13T12:35:29.958Z,225.00
2023-02-13T12:36:30.034Z,230.62
2023-02-13T12:37:30.097Z,230.62
2023-02-13T12:38:30.152Z,225.00
2023-02-13T12:39:30.238Z,225.00
2023-02-13T12:40:30.291Z,225.00
2023-02-13T12:41:30.480Z,225.00
2023-02-13T12:42:30.464Z,225.00
2023-02-13T12:43:30.548Z,225.00
2023-02-13T12:44:30.608Z,225.00
2023-02-13T12:45:30.717Z,225.00
2023-02-13T12:46:30.880Z,225.00
2023-02-13T12:47:30.843Z,225.00
2023-02-13T12:48:30.903Z,225.00
2023-02-13T12:49:31.007Z,225.00
2023-02-13T12:50:31.061Z,225.00